Airfield :
LOGIN :

Register | Disclaimer

   EN    FR    IT 

 










Legend :    VFR   Marginal VFR   IFR   Intensive IFR   Very Intensive IFR
Visi :
Ceiling :
>= 8 km
>= 3000ft
5 to 8 km
1000 to 3000 ft
1500m to 5 km
500 to 1000 ft
800 to 1500m
200 to 500 ft
< 800m
< 200 ft
Symbols :   Thunderstorms  Fog  Heavy snow  Heavy precipitations  Wind > 20 kt
SIGMETs :     Misc.  Thunderstorms  Icing  Turbulence  Mountain Waves  Volcanic Ashes







- Airport Elevation : 935 ft


EBFS - Florennes

CURRENT METAR :
  • 200025Z AUTO 23006KT 7000 SCT150/// 14/13 Q1011 WHT

EXPIRED METARs :
  • 200013Z AUTO 23006KT 9000 FEW004/// 14/13 Q1011 BLU
  • 192355Z AUTO 21007KT 9999 SCT004/// 14/14 Q1011 YLO
  • 192333Z AUTO 23007KT 9999 FEW004/// SCT006/// BKN220/// 14/14 Q1011 YLO
  • 192255Z AUTO 22007KT 9999 FEW007/// BKN055/// BKN090/// 15/14 Q1011 BLU
  • 192248Z AUTO 22006KT 9999 FEW007/// BKN050/// 15/14 Q1011 BLU
  • 192225Z AUTO 23007KT 9999 FEW008/// SCT014/// BKN095/// 15/14 Q1011 GRN
  • 192214Z AUTO 25006KT 9999 FEW007/// SCT009/// BKN055/// 15/14 Q1011 GRN
  • 192155Z AUTO 24005KT 9999 FEW055/// SCT070/// BKN100/// 15/14 Q1011 BLU

TAF TAF EBFS
Valid from the 19 at 19:00 until the 20 at 07:00 UTC


191541Z 1919/2007 21010KT 9999 SCT040 BKN120
PROB30
TEMPO 1919/1921 21015G30KT 4000 TSRAGS SCT035CB BKN050
BECMG 1921/1923 SCT012
BECMG 1923/2001 SCT008
TEMPO 2001/2007 3000 BKN004
No reported NOTAMs for that airfield.



MET'MAP, your aeronautical weather chart ! - Copyright ORBIFLY December 2007 - Disclaimer

ORBIFLY MET'MAP TEAM :

Programming & Development : Alexandra Zaïnal
Concept & Development : Baudouin d'Aumeries
Co-Development & Prog : Marc-Olivier Méhu
Technical & hardware support : Manuel Goepfert

Contact : metmap@orbifly.com




SOURCES & CREDITS :

   NOAA